createdAt,value
2018-11-25T00:01:46.745Z,4.20
2018-11-25T00:04:14.162Z,4.30
2018-11-25T00:06:42.653Z,4.40
2018-11-25T00:09:09.030Z,4.40
2018-11-25T00:11:36.419Z,4.40
2018-11-25T00:14:04.214Z,4.50
2018-11-25T00:16:31.750Z,4.60
2018-11-25T00:18:59.179Z,4.60
2018-11-25T00:21:26.574Z,4.60
2018-11-25T00:23:53.987Z,4.60
2018-11-25T00:26:21.386Z,4.50
2018-11-25T00:28:48.780Z,4.60
2018-11-25T00:31:16.202Z,4.70
2018-11-25T00:33:43.590Z,4.70
2018-11-25T00:36:11.018Z,4.60
2018-11-25T00:38:38.462Z,4.50
2018-11-25T00:41:05.894Z,4.50
2018-11-25T00:43:33.284Z,4.40
2018-11-25T00:46:00.719Z,4.40
2018-11-25T00:48:28.115Z,4.40
2018-11-25T00:50:55.534Z,4.40
2018-11-25T00:53:22.940Z,4.40
2018-11-25T00:55:50.362Z,4.40
2018-11-25T00:58:17.759Z,4.30
2018-11-25T01:00:45.190Z,4.40
2018-11-25T01:03:12.593Z,4.50
2018-11-25T01:05:40.022Z,4.60
2018-11-25T01:08:07.466Z,4.60
2018-11-25T01:10:34.894Z,4.60
2018-11-25T01:13:02.302Z,4.70
2018-11-25T01:15:29.722Z,4.60
2018-11-25T01:17:57.109Z,4.50
2018-11-25T01:20:24.550Z,4.60
2018-11-25T01:22:51.950Z,4.60
2018-11-25T01:25:19.366Z,4.70
2018-11-25T01:27:46.778Z,4.70
2018-11-25T01:30:15.980Z,4.70
2018-11-25T01:32:43.443Z,4.70
2018-11-25T01:35:11.521Z,4.70
2018-11-25T01:37:39.001Z,4.70
2018-11-25T01:40:16.963Z,4.70
2018-11-25T01:42:44.470Z,4.70
2018-11-25T01:45:13.695Z,4.70
2018-11-25T01:47:41.170Z,4.50
2018-11-25T01:50:09.906Z,4.50
2018-11-25T01:52:37.590Z,4.60
2018-11-25T01:55:07.070Z,4.60
2018-11-25T01:57:34.473Z,4.80
2018-11-25T02:00:01.960Z,4.90
2018-11-25T02:02:29.360Z,4.70
2018-11-25T02:04:56.798Z,4.70
2018-11-25T02:07:24.187Z,4.70
2018-11-25T02:09:51.629Z,4.80
2018-11-25T02:12:19.065Z,4.80
2018-11-25T02:14:46.495Z,4.70
2018-11-25T02:17:13.898Z,4.70
2018-11-25T02:19:41.338Z,4.80
2018-11-25T02:22:08.768Z,4.80
2018-11-25T02:24:36.179Z,4.80
2018-11-25T02:27:03.629Z,4.80
2018-11-25T02:29:31.057Z,4.80
2018-11-25T02:31:58.481Z,4.80
2018-11-25T02:34:25.914Z,4.80
2018-11-25T02:36:53.304Z,4.70
2018-11-25T02:39:20.718Z,4.70
2018-11-25T02:41:48.123Z,4.70
2018-11-25T02:44:15.567Z,4.70
2018-11-25T02:46:42.959Z,4.70
2018-11-25T02:49:10.379Z,4.70
2018-11-25T02:51:37.778Z,4.70
2018-11-25T02:54:05.206Z,4.70
2018-11-25T02:56:32.610Z,4.60
2018-11-25T02:59:00.040Z,4.70
2018-11-25T03:01:27.454Z,4.70
2018-11-25T03:03:54.869Z,4.70
2018-11-25T03:06:22.280Z,4.60
2018-11-25T03:08:49.698Z,4.60
2018-11-25T03:11:17.094Z,4.50
2018-11-25T03:13:44.518Z,4.50
2018-11-25T03:16:11.914Z,4.40
2018-11-25T03:18:39.330Z,4.50
2018-11-25T03:21:06.735Z,4.50
2018-11-25T03:23:34.182Z,4.50
2018-11-25T03:26:01.594Z,4.50
2018-11-25T03:28:28.985Z,4.50
2018-11-25T03:30:56.418Z,4.50
2018-11-25T03:33:23.814Z,4.40
2018-11-25T03:35:51.238Z,4.40
2018-11-25T03:38:18.641Z,4.30
2018-11-25T03:40:46.090Z,4.30
2018-11-25T03:43:13.555Z,4.20
2018-11-25T03:45:40.981Z,4.00
2018-11-25T03:48:08.386Z,3.90
2018-11-25T03:50:35.811Z,3.80
2018-11-25T03:53:03.219Z,3.80
2018-11-25T03:55:30.633Z,3.80
2018-11-25T03:57:58.025Z,3.70
2018-11-25T04:00:25.467Z,3.80
2018-11-25T04:02:53.734Z,3.80
2018-11-25T04:05:21.182Z,3.80
2018-11-25T04:07:48.725Z,3.80
2018-11-25T04:10:17.091Z,3.80
2018-11-25T04:12:44.575Z,3.80
2018-11-25T04:15:14.795Z,3.70
2018-11-25T04:17:42.265Z,3.70
2018-11-25T04:20:11.930Z,3.70
2018-11-25T04:22:39.346Z,3.80
2018-11-25T04:25:07.974Z,3.80
2018-11-25T04:27:35.667Z,3.80
2018-11-25T04:30:06.979Z,3.70
2018-11-25T04:32:34.385Z,3.70
2018-11-25T04:35:01.823Z,3.70
2018-11-25T04:37:29.221Z,3.80
2018-11-25T04:39:56.610Z,3.90
2018-11-25T04:42:24.035Z,4.00
2018-11-25T04:44:51.442Z,4.10
2018-11-25T04:47:18.897Z,4.10
2018-11-25T04:49:46.291Z,4.20
2018-11-25T04:52:13.763Z,4.20
2018-11-25T04:54:41.162Z,4.20
2018-11-25T04:57:08.594Z,4.20
2018-11-25T04:59:36.010Z,4.20
2018-11-25T05:02:03.470Z,4.20
2018-11-25T05:04:30.854Z,4.20
2018-11-25T05:06:58.275Z,4.20
2018-11-25T05:09:25.689Z,4.30
2018-11-25T05:11:53.107Z,4.30
2018-11-25T05:14:20.506Z,4.30
2018-11-25T05:16:47.934Z,4.30
2018-11-25T05:19:15.334Z,4.30
2018-11-25T05:21:42.775Z,4.20
2018-11-25T05:24:10.174Z,4.30
2018-11-25T05:26:37.594Z,4.30
2018-11-25T05:29:05.330Z,4.30
2018-11-25T05:31:32.777Z,4.20
2018-11-25T05:34:00.179Z,4.20
2018-11-25T05:36:27.602Z,4.30
2018-11-25T05:38:55.003Z,4.30
2018-11-25T05:41:22.427Z,4.20
2018-11-25T05:43:49.831Z,4.20
2018-11-25T05:46:17.247Z,4.20
2018-11-25T05:48:44.639Z,4.10
2018-11-25T05:51:12.053Z,4.20
2018-11-25T05:53:39.474Z,4.20
2018-11-25T05:56:06.897Z,4.10
2018-11-25T05:58:34.295Z,4.10
2018-11-25T06:01:01.742Z,4.10
2018-11-25T06:03:29.147Z,4.00
2018-11-25T06:05:56.567Z,4.00
2018-11-25T06:08:23.970Z,4.00
2018-11-25T06:10:51.395Z,3.90
2018-11-25T06:13:18.811Z,3.80
2018-11-25T06:15:46.226Z,3.80
2018-11-25T06:18:13.651Z,3.70
2018-11-25T06:20:41.048Z,3.60
2018-11-25T06:23:08.458Z,3.60
2018-11-25T06:25:35.854Z,3.50
2018-11-25T06:28:03.299Z,3.50
2018-11-25T06:30:30.710Z,3.40
2018-11-25T06:32:58.134Z,3.20
2018-11-25T06:35:25.543Z,3.20
2018-11-25T06:37:52.970Z,3.10
2018-11-25T06:40:20.383Z,3.10
2018-11-25T06:42:47.922Z,3.10
2018-11-25T06:45:19.597Z,3.00
2018-11-25T06:47:47.030Z,3.00
2018-11-25T06:50:14.435Z,3.10
2018-11-25T06:52:41.935Z,3.20
2018-11-25T06:55:10.562Z,3.20
2018-11-25T06:57:37.986Z,3.20
2018-11-25T07:00:12.393Z,3.10
2018-11-25T07:02:39.843Z,3.00
2018-11-25T07:05:07.573Z,2.90
2018-11-25T07:07:35.001Z,2.80
2018-11-25T07:10:02.454Z,2.80
2018-11-25T07:12:29.886Z,2.90
2018-11-25T07:14:57.290Z,3.00
2018-11-25T07:17:24.706Z,3.10
2018-11-25T07:19:52.098Z,3.20
2018-11-25T07:22:19.515Z,3.40
2018-11-25T07:24:46.922Z,3.50
2018-11-25T07:27:14.354Z,3.60
2018-11-25T07:29:41.807Z,3.60
2018-11-25T07:32:09.242Z,3.60
2018-11-25T07:34:36.638Z,3.60
2018-11-25T07:37:04.080Z,3.70
2018-11-25T07:39:31.481Z,3.80
2018-11-25T07:41:58.865Z,3.80
2018-11-25T07:44:26.288Z,3.80
2018-11-25T07:46:53.703Z,3.80
2018-11-25T07:49:21.149Z,3.80
2018-11-25T07:51:48.542Z,3.90
2018-11-25T07:54:15.967Z,4.10
2018-11-25T07:56:43.369Z,4.10
2018-11-25T07:59:10.821Z,4.10
2018-11-25T08:01:38.217Z,4.10
2018-11-25T08:04:05.665Z,4.10
2018-11-25T08:06:33.066Z,4.10
2018-11-25T08:09:00.490Z,4.10
2018-11-25T08:11:27.891Z,4.20
2018-11-25T08:13:55.335Z,4.30
2018-11-25T08:16:22.722Z,4.50
2018-11-25T08:18:50.138Z,4.60
2018-11-25T08:21:17.538Z,4.70
2018-11-25T08:23:45.007Z,5.00
2018-11-25T08:26:12.437Z,4.90
2018-11-25T08:28:39.939Z,4.90
2018-11-25T08:31:07.341Z,4.90
2018-11-25T08:33:34.804Z,5.00
2018-11-25T08:36:02.213Z,5.00
2018-11-25T08:38:29.641Z,5.10
2018-11-25T08:40:57.039Z,5.20
2018-11-25T08:43:24.486Z,5.30
2018-11-25T08:45:51.891Z,5.20
2018-11-25T08:48:19.325Z,5.30
2018-11-25T08:50:46.778Z,5.50
2018-11-25T08:53:14.188Z,5.80
2018-11-25T08:55:41.611Z,5.80
2018-11-25T08:58:09.088Z,5.70
2018-11-25T09:00:36.495Z,5.80
2018-11-25T09:03:03.982Z,5.70
2018-11-25T09:05:31.381Z,5.90
2018-11-25T09:07:58.810Z,5.90
2018-11-25T09:10:26.239Z,5.90
2018-11-25T09:12:56.518Z,6.10
2018-11-25T09:15:25.578Z,6.10
2018-11-25T09:17:52.989Z,6.10
2018-11-25T09:20:21.152Z,6.40
2018-11-25T09:22:49.212Z,6.40
2018-11-25T09:25:20.681Z,6.70
2018-11-25T09:27:48.083Z,6.60
2018-11-25T09:30:21.838Z,6.50
2018-11-25T09:32:49.263Z,6.60
2018-11-25T09:35:17.066Z,6.50
2018-11-25T09:37:44.490Z,6.40
2018-11-25T09:40:14.060Z,6.30
2018-11-25T09:42:41.490Z,6.40
2018-11-25T09:45:12.990Z,6.50
2018-11-25T09:47:40.581Z,6.50
2018-11-25T09:50:10.298Z,6.40
2018-11-25T09:52:37.902Z,6.30
2018-11-25T09:55:07.598Z,6.30
2018-11-25T09:57:35.059Z,6.50
2018-11-25T10:00:02.601Z,6.60
2018-11-25T10:02:30.020Z,6.90
2018-11-25T10:04:57.443Z,7.10
2018-11-25T10:07:24.858Z,7.20
2018-11-25T10:09:52.289Z,7.00
2018-11-25T10:12:19.742Z,7.00
2018-11-25T10:14:47.167Z,7.20
2018-11-25T10:17:14.570Z,7.50
2018-11-25T10:19:41.982Z,7.80
2018-11-25T10:22:09.611Z,7.90
2018-11-25T10:24:37.043Z,7.90
2018-11-25T10:27:04.708Z,7.90
2018-11-25T10:29:32.138Z,7.90
2018-11-25T10:31:59.555Z,7.80
2018-11-25T10:34:26.994Z,7.60
2018-11-25T10:36:54.389Z,7.40
2018-11-25T10:39:21.815Z,7.30
2018-11-25T10:41:49.213Z,7.30
2018-11-25T10:44:16.645Z,7.40
2018-11-25T10:46:44.108Z,7.30
2018-11-25T10:49:11.535Z,7.30
2018-11-25T10:51:38.940Z,7.20
2018-11-25T10:54:06.363Z,7.10
2018-11-25T10:56:33.754Z,7.10
2018-11-25T10:59:01.163Z,7.10
2018-11-25T11:01:34.250Z,7.10
2018-11-25T11:04:01.708Z,7.20
2018-11-25T11:06:34.907Z,7.30
2018-11-25T11:09:02.342Z,7.30
2018-11-25T11:11:29.774Z,7.20
2018-11-25T11:13:57.189Z,7.10
2018-11-25T11:16:24.651Z,7.30
2018-11-25T11:18:52.094Z,7.40
2018-11-25T11:21:19.532Z,7.50
2018-11-25T11:23:46.941Z,7.70
2018-11-25T11:26:27.202Z,7.60
2018-11-25T11:28:54.598Z,7.80
2018-11-25T11:31:22.023Z,7.70
2018-11-25T11:33:49.432Z,7.80
2018-11-25T11:36:16.867Z,8.10
2018-11-25T11:38:44.279Z,8.20
2018-11-25T11:41:11.706Z,8.30
2018-11-25T11:43:39.114Z,8.50
2018-11-25T11:46:06.566Z,8.40
2018-11-25T11:48:33.981Z,8.50
2018-11-25T11:51:01.396Z,8.30
2018-11-25T11:53:28.806Z,8.20
2018-11-25T11:55:56.231Z,8.10
2018-11-25T11:58:23.635Z,8.00
2018-11-25T12:00:51.062Z,7.80
2018-11-25T12:03:26.112Z,7.70
2018-11-25T12:05:45.928Z,7.40
2018-11-25T12:08:13.409Z,7.40
2018-11-25T12:10:40.854Z,7.50
2018-11-25T12:13:08.257Z,7.60
2018-11-25T12:15:35.721Z,7.50
2018-11-25T12:18:03.160Z,7.40
2018-11-25T12:20:31.110Z,7.30
2018-11-25T12:22:58.982Z,7.30
2018-11-25T12:25:26.415Z,7.30
2018-11-25T12:27:53.816Z,7.30
2018-11-25T12:30:21.258Z,7.20
2018-11-25T12:32:49.738Z,7.20
2018-11-25T12:35:17.456Z,7.10
2018-11-25T12:37:45.028Z,7.10
2018-11-25T12:40:16.457Z,7.10
2018-11-25T12:42:46.271Z,7.20
2018-11-25T12:45:14.942Z,7.20
2018-11-25T12:47:42.358Z,7.10
2018-11-25T12:50:13.026Z,7.00
2018-11-25T12:52:40.457Z,7.00
2018-11-25T12:55:10.086Z,7.00
2018-11-25T12:57:37.526Z,7.00
2018-11-25T13:00:43.064Z,6.90
2018-11-25T13:03:11.527Z,6.90
2018-11-25T13:05:45.627Z,6.90
2018-11-25T13:08:07.722Z,7.00
2018-11-25T13:10:35.137Z,7.00
2018-11-25T13:13:02.564Z,6.90
2018-11-25T13:15:30.017Z,7.00
2018-11-25T13:17:57.485Z,7.00
2018-11-25T13:20:24.886Z,7.00
2018-11-25T13:22:52.309Z,7.10
2018-11-25T13:25:19.714Z,7.10
2018-11-25T13:27:47.156Z,7.20
2018-11-25T13:30:23.413Z,7.10
2018-11-25T13:32:52.210Z,7.20
2018-11-25T13:35:19.622Z,7.00
2018-11-25T13:37:47.107Z,7.00
2018-11-25T13:40:15.370Z,7.00
2018-11-25T13:42:42.818Z,7.10
2018-11-25T13:45:10.554Z,7.10
2018-11-25T13:47:38.078Z,7.00
2018-11-25T13:50:06.950Z,7.00
2018-11-25T13:52:34.386Z,6.90
2018-11-25T13:55:01.811Z,6.90
2018-11-25T13:57:29.272Z,7.00
2018-11-25T13:59:56.862Z,7.00
2018-11-25T14:02:24.326Z,7.00
2018-11-25T14:04:51.769Z,7.00
2018-11-25T14:07:19.277Z,7.10
2018-11-25T14:09:46.736Z,7.10
2018-11-25T14:12:14.166Z,7.00
2018-11-25T14:14:41.561Z,7.10
2018-11-25T14:17:08.978Z,7.00
2018-11-25T14:19:36.394Z,7.00
2018-11-25T14:22:03.883Z,6.90
2018-11-25T14:24:31.281Z,7.00
2018-11-25T14:27:00.049Z,6.90
2018-11-25T14:29:27.770Z,6.90
2018-11-25T14:31:55.210Z,6.90
2018-11-25T14:34:22.610Z,6.90
2018-11-25T14:36:50.035Z,6.80
2018-11-25T14:39:17.471Z,6.80
2018-11-25T14:41:44.927Z,6.80
2018-11-25T14:44:12.355Z,6.70
2018-11-25T14:46:39.790Z,6.70
2018-11-25T14:49:07.667Z,6.60
2018-11-25T14:51:35.219Z,6.50
2018-11-25T14:54:02.727Z,6.60
2018-11-25T14:56:30.138Z,6.60
2018-11-25T14:58:57.569Z,6.50
2018-11-25T15:01:24.958Z,6.60
2018-11-25T15:03:53.836Z,6.50
2018-11-25T15:06:25.069Z,6.50
2018-11-25T15:08:48.832Z,6.50
2018-11-25T15:11:16.254Z,6.40
2018-11-25T15:13:43.811Z,6.40
2018-11-25T15:16:12.941Z,6.60
2018-11-25T15:18:40.406Z,6.40
2018-11-25T15:21:08.886Z,6.30
2018-11-25T15:23:36.351Z,6.30
2018-11-25T15:26:03.814Z,6.20
2018-11-25T15:28:31.234Z,6.20
2018-11-25T15:30:58.626Z,6.30
2018-11-25T15:33:26.071Z,6.30
2018-11-25T15:35:53.474Z,6.30
2018-11-25T15:38:20.931Z,6.20
2018-11-25T15:40:48.342Z,6.30
2018-11-25T15:43:15.765Z,6.20
2018-11-25T15:45:43.195Z,6.20
2018-11-25T15:48:14.163Z,6.20
2018-11-25T15:50:41.588Z,6.20
2018-11-25T15:53:09.963Z,6.20
2018-11-25T15:55:37.382Z,6.10
2018-11-25T15:58:05.903Z,6.10
2018-11-25T16:00:33.343Z,6.10
2018-11-25T16:03:00.796Z,6.20
2018-11-25T16:05:29.936Z,6.20
2018-11-25T16:07:57.458Z,6.20
2018-11-25T16:10:24.894Z,6.20
2018-11-25T16:12:52.434Z,6.20
2018-11-25T16:15:21.022Z,6.20
2018-11-25T16:17:48.636Z,6.20
2018-11-25T16:20:18.270Z,6.20
2018-11-25T16:22:46.701Z,6.10
2018-11-25T16:25:16.149Z,6.00
2018-11-25T16:27:43.681Z,6.10
2018-11-25T16:30:12.235Z,6.10
2018-11-25T16:32:39.635Z,6.10
2018-11-25T16:35:08.591Z,6.20
2018-11-25T16:37:36.310Z,6.20
2018-11-25T16:40:07.197Z,6.10
2018-11-25T16:42:34.850Z,6.10
2018-11-25T16:45:02.415Z,6.10
2018-11-25T16:47:29.818Z,6.20
2018-11-25T16:49:57.325Z,6.20
2018-11-25T16:52:24.737Z,6.30
2018-11-25T16:54:52.174Z,6.30
2018-11-25T16:57:19.568Z,6.30
2018-11-25T16:59:47.003Z,6.20
2018-11-25T17:02:14.420Z,6.10
2018-11-25T17:04:41.882Z,6.10
2018-11-25T17:07:09.307Z,6.10
2018-11-25T17:09:36.751Z,6.00
2018-11-25T17:12:04.254Z,6.00
2018-11-25T17:14:33.933Z,6.10
2018-11-25T17:16:59.165Z,6.20
2018-11-25T17:19:26.617Z,6.10
2018-11-25T17:21:54.039Z,6.10
2018-11-25T17:24:21.510Z,6.20
2018-11-25T17:26:48.898Z,6.10
2018-11-25T17:29:16.395Z,6.10
2018-11-25T17:31:43.819Z,6.10
2018-11-25T17:34:11.269Z,6.20
2018-11-25T17:36:38.679Z,6.10
2018-11-25T17:39:07.804Z,6.10
2018-11-25T17:41:35.298Z,6.10
2018-11-25T17:44:02.750Z,6.10
2018-11-25T17:46:30.170Z,6.10
2018-11-25T17:48:58.004Z,6.20
2018-11-25T17:51:25.414Z,6.10
2018-11-25T17:53:52.920Z,6.10
2018-11-25T17:56:20.319Z,6.10
2018-11-25T17:58:47.761Z,6.10
2018-11-25T18:01:15.158Z,6.10
2018-11-25T18:03:42.598Z,6.10
2018-11-25T18:06:09.994Z,6.10
2018-11-25T18:08:37.438Z,6.10
2018-11-25T18:11:04.927Z,6.20
2018-11-25T18:13:34.622Z,6.10
2018-11-25T18:16:03.274Z,6.10
2018-11-25T18:18:37.859Z,6.10
2018-11-25T18:21:07.610Z,6.00
2018-11-25T18:23:35.091Z,6.00
2018-11-25T18:26:02.535Z,6.10
2018-11-25T18:28:29.989Z,6.00
2018-11-25T18:30:57.398Z,6.00
2018-11-25T18:33:24.843Z,6.00
2018-11-25T18:35:52.258Z,6.00
2018-11-25T18:38:20.442Z,6.00
2018-11-25T18:40:47.846Z,6.00
2018-11-25T18:43:15.344Z,5.90
2018-11-25T18:45:42.774Z,5.90
2018-11-25T18:48:11.781Z,5.80
2018-11-25T18:50:39.487Z,5.80
2018-11-25T18:53:08.168Z,5.80
2018-11-25T18:55:34.554Z,5.80
2018-11-25T18:58:02.063Z,5.80
2018-11-25T19:00:33.041Z,5.70
2018-11-25T19:03:00.458Z,5.80
2018-11-25T19:05:27.859Z,5.70
2018-11-25T19:07:55.296Z,5.70
2018-11-25T19:10:22.711Z,5.70
2018-11-25T19:12:50.448Z,5.60
2018-11-25T19:15:18.822Z,5.60
2018-11-25T19:17:46.314Z,5.60
2018-11-25T19:20:18.011Z,5.60
2018-11-25T19:22:45.423Z,5.60
2018-11-25T19:25:14.238Z,5.60
2018-11-25T19:27:42.183Z,5.60
2018-11-25T19:30:11.314Z,5.70
2018-11-25T19:32:38.742Z,5.60
2018-11-25T19:35:08.376Z,5.70
2018-11-25T19:37:35.767Z,5.70
2018-11-25T19:40:03.587Z,5.80
2018-11-25T19:42:32.424Z,5.70
2018-11-25T19:44:58.459Z,5.60
2018-11-25T19:47:25.851Z,5.60
2018-11-25T19:49:53.378Z,5.60
2018-11-25T19:52:20.765Z,5.50
2018-11-25T19:54:48.198Z,5.50
2018-11-25T19:57:15.606Z,5.60
2018-11-25T19:59:43.054Z,5.50
2018-11-25T20:02:10.458Z,5.60
2018-11-25T20:04:37.899Z,5.70
2018-11-25T20:07:05.334Z,5.60
2018-11-25T20:09:32.835Z,5.60
2018-11-25T20:12:00.243Z,5.50
2018-11-25T20:14:27.697Z,5.60
2018-11-25T20:17:00.814Z,5.50
2018-11-25T20:19:28.302Z,5.50
2018-11-25T20:22:01.515Z,5.50
2018-11-25T20:24:28.998Z,5.50
2018-11-25T20:27:02.062Z,5.40
2018-11-25T20:29:29.507Z,5.40
2018-11-25T20:32:02.546Z,5.40
2018-11-25T20:34:30.097Z,5.40
2018-11-25T20:36:57.489Z,5.40
2018-11-25T20:39:31.854Z,5.30
2018-11-25T20:41:59.280Z,5.40
2018-11-25T20:44:26.720Z,5.30
2018-11-25T20:46:59.769Z,5.30
2018-11-25T20:49:27.225Z,5.30
2018-11-25T20:52:00.304Z,5.30
2018-11-25T20:54:27.759Z,5.20
2018-11-25T20:56:55.163Z,5.30
2018-11-25T20:59:22.663Z,5.30
2018-11-25T21:01:50.084Z,5.30
2018-11-25T21:04:17.508Z,5.40
2018-11-25T21:06:44.946Z,5.30
2018-11-25T21:09:12.385Z,5.30
2018-11-25T21:11:39.800Z,5.30
2018-11-25T21:14:07.258Z,5.30
2018-11-25T21:16:34.656Z,5.30
2018-11-25T21:19:02.083Z,5.20
2018-11-25T21:21:29.474Z,5.30
2018-11-25T21:23:56.897Z,5.20
2018-11-25T21:26:24.300Z,5.20
2018-11-25T21:28:51.726Z,5.20
2018-11-25T21:31:20.047Z,5.20
2018-11-25T21:33:49.174Z,5.20
2018-11-25T21:36:16.578Z,5.20
2018-11-25T21:38:43.995Z,5.20
2018-11-25T21:41:11.405Z,5.20
2018-11-25T21:43:38.884Z,5.20
2018-11-25T21:46:06.310Z,5.20
2018-11-25T21:51:06.926Z,5.30
2018-11-25T21:53:34.335Z,5.20
2018-11-25T21:56:01.759Z,5.30
2018-11-25T21:58:29.194Z,5.20
2018-11-25T22:00:56.603Z,5.10
2018-11-25T22:03:23.998Z,5.20
2018-11-25T22:05:51.414Z,5.20
2018-11-25T22:08:18.844Z,5.10
2018-11-25T22:10:46.297Z,5.10
2018-11-25T22:13:13.685Z,5.10
2018-11-25T22:15:41.102Z,5.20
2018-11-25T22:18:08.515Z,5.20
2018-11-25T22:20:36.107Z,5.20
2018-11-25T22:23:06.125Z,5.10
2018-11-25T22:25:33.551Z,5.10
2018-11-25T22:28:00.950Z,5.00
2018-11-25T22:30:28.370Z,5.00
2018-11-25T22:32:55.765Z,4.90
2018-11-25T22:35:23.417Z,4.90
2018-11-25T22:37:51.466Z,4.90
2018-11-25T22:40:19.350Z,5.00
2018-11-25T22:42:47.666Z,4.90
2018-11-25T22:45:17.113Z,5.00
2018-11-25T22:47:44.515Z,4.90
2018-11-25T22:50:13.136Z,4.90
2018-11-25T22:52:40.597Z,4.90
2018-11-25T22:55:16.524Z,4.80
2018-11-25T22:57:43.931Z,4.90
2018-11-25T23:00:18.262Z,4.90
2018-11-25T23:02:45.705Z,4.90
2018-11-25T23:05:24.410Z,4.90
2018-11-25T23:07:51.836Z,4.80
2018-11-25T23:10:19.294Z,4.80
2018-11-25T23:12:46.717Z,4.80
2018-11-25T23:15:14.154Z,4.80
2018-11-25T23:17:41.577Z,4.80
2018-11-25T23:20:09.027Z,4.80
2018-11-25T23:22:36.434Z,4.70
2018-11-25T23:25:04.330Z,4.80
2018-11-25T23:27:31.729Z,4.80
2018-11-25T23:29:59.142Z,4.80
2018-11-25T23:32:26.562Z,4.80
2018-11-25T23:34:53.966Z,4.90
2018-11-25T23:37:21.390Z,4.90
2018-11-25T23:39:48.790Z,4.80
2018-11-25T23:42:16.242Z,4.90
2018-11-25T23:44:43.642Z,4.80
2018-11-25T23:47:11.098Z,4.70
2018-11-25T23:49:38.516Z,4.70
2018-11-25T23:52:05.970Z,4.70
2018-11-25T23:54:33.374Z,4.70
2018-11-25T23:57:00.803Z,4.70
2018-11-25T23:59:28.234Z,4.70
